This is the latest recevied weather packets stored in our database for station/object W6ORV. If no packets are shown the sender has not sent any weather packets the latest 10 day(s).
| Time | Temp. | Humidity | Pressure | Rain* | Wind** | Luminosity | Snow |
|---|---|---|---|---|---|---|---|
| 1777586107 | 29.44° C | 30% | 4296.6 hPa | 0 mm | - | 692 W/m² | - |
| 1777584291 | 28.89° C | 30% | 4297 hPa | 0 mm | - | 739 W/m² | - |
| 1777583681 | 29.44° C | 30% | 4297 hPa | 0 mm | - | 732 W/m² | - |
| 1777583381 | 30° C | 30% | 4296.9 hPa | 0 mm | - | 757 W/m² | - |
| 1777583080 | 28.33° C | 32% | 4297.2 hPa | 0 mm | - | 753 W/m² | - |
| 1777582777 | 27.78° C | 32% | 4297.1 hPa | 0 mm | - | 745 W/m² | - |
| 1777582472 | 27.78° C | 32% | 4297.4 hPa | 0 mm | - | 724 W/m² | - |
| 1777581566 | 28.33° C | 32% | 4297.2 hPa | 0 mm | - | 702 W/m² | - |
| 1777581261 | 27.78° C | 33% | 4297.4 hPa | 0 mm | - | 732 W/m² | - |
| 1777580651 | 27.78° C | 32% | 4297.3 hPa | 0 mm | - | 770 W/m² | - |
| 1777580043 | 26.67° C | 35% | 4297.6 hPa | 0 mm | - | 776 W/m² | - |
| 1777579739 | 26.67° C | 33% | 4297.6 hPa | 0 mm | - | 772 W/m² | - |
| 1777579437 | 26.11° C | 35% | 4297.6 hPa | 0 mm | - | 725 W/m² | - |
| 1777579133 | 27.22° C | 34% | 4297.7 hPa | 0 mm | - | 700 W/m² | - |
| 1777578529 | 25.56° C | 35% | 4298 hPa | 0 mm | - | 744 W/m² | - |
| 1777577312 | 25° C | 38% | 4298.2 hPa | 0 mm | - | 799 W/m² | - |
| 1777577008 | 25° C | 38% | 4298.4 hPa | 0 mm | - | 773 W/m² | - |
| 1777573669 | 23.33° C | 44% | 4299.1 hPa | 0 mm | - | 830 W/m² | - |
| 1777573366 | 22.78° C | 45% | 4299.1 hPa | 0 mm | - | 833 W/m² | - |
| 1777570635 | 20° C | 58% | 4299.4 hPa | 0 mm | - | 801 W/m² | - |
| 1777569724 | 19.44° C | 58% | 4299.9 hPa | 0 mm | - | 809 W/m² | - |
| 1777568207 | 17.22° C | 66% | 4299.7 hPa | 0 mm | - | 711 W/m² | - |
| 1777566088 | 16.11° C | 71% | 4299.7 hPa | 0 mm | - | 550 W/m² | - |
| 1777565176 | 15° C | 75% | 4299.9 hPa | 0 mm | - | 413 W/m² | - |
| 1777564263 | 13.89° C | 76% | 4299.7 hPa | 0 mm | - | 344 W/m² | - |
* Rain latest hour (hover to see other rain measurements)
** Current wind speed in m/s (hover to see current wind gust speed)